Time;durP1;ratioP1;P1;durP2;ratioP2;P2;SDS_P1;SDS_P2;PMS_P1;PMS_P2;Temp;Humidity;BMP_temperature;BMP_pressure;BME280_temperature;BME280_humidity;BME280_pressure;Samples;Min_cycle;Max_cycle;Signal;HPM_P1;HPM_P2
2023/03/26 00:01:26;;;;;;;12.68;3.25;;;;;;;8.37;100.00;100578.00;4998415;28;20030;-51
2023/03/26 00:03:53;;;;;;;11.27;3.22;;;;;;;8.30;100.00;100578.19;4998235;28;20038;-52
2023/03/26 00:06:38;;;;;;;13.77;3.15;;;;;;;7.94;100.00;100519.69;4991662;28;20042;-53
2023/03/26 00:09:06;;;;;;;15.00;3.17;;;;;;;8.28;100.00;100586.09;4976969;28;20038;-47
2023/03/26 00:11:31;;;;;;;14.30;3.30;;;;;;;8.29;100.00;100579.09;4990190;28;20030;-51
2023/03/26 00:13:56;;;;;;;10.80;3.15;;;;;;;8.27;100.00;100579.13;4989629;28;20042;-48
2023/03/26 00:16:24;;;;;;;13.05;3.63;;;;;;;8.08;100.00;100545.56;4992627;28;20393;-50
2023/03/26 00:18:50;;;;;;;13.05;3.33;;;;;;;8.20;100.00;100561.81;4994048;28;20041;-50
2023/03/26 00:21:19;;;;;;;12.45;3.13;;;;;;;8.13;100.00;100557.63;5012252;28;20390;-49
2023/03/26 00:23:46;;;;;;;15.88;3.88;;;;;;;7.87;100.00;100513.78;5001467;28;20049;-52
2023/03/26 00:26:11;;;;;;;15.93;4.03;;;;;;;7.79;100.00;100500.00;4990583;28;20034;-51
2023/03/26 00:28:39;;;;;;;15.75;4.60;;;;;;;7.72;100.00;100490.59;4990570;28;20122;-52
2023/03/26 00:31:06;;;;;;;15.77;4.40;;;;;;;8.11;100.00;100548.97;4992263;28;20040;-51
2023/03/26 00:33:31;;;;;;;16.27;4.65;;;;;;;8.09;100.00;100542.00;4989470;28;20030;-54
2023/03/26 00:35:59;;;;;;;16.95;3.50;;;;;;;8.11;100.00;100548.09;5002213;28;20114;-52
2023/03/26 00:38:26;;;;;;;18.15;3.95;;;;;;;8.09;100.00;100535.03;4991332;28;20042;-49
2023/03/26 00:40:52;;;;;;;18.10;4.15;;;;;;;8.08;100.00;100541.19;4994659;28;20034;-49
2023/03/26 00:43:18;;;;;;;16.77;3.65;;;;;;;7.71;100.00;100467.03;5007310;28;20173;-50
2023/03/26 00:45:48;;;;;;;24.95;3.97;;;;;;;7.82;100.00;100485.97;4995054;28;20038;-52
2023/03/26 00:48:15;;;;;;;19.02;3.95;;;;;;;8.10;100.00;100533.25;4993476;28;20043;-50
2023/03/26 00:50:41;;;;;;;20.65;6.90;;;;;;;7.72;100.00;100453.06;4995798;28;20142;-50
2023/03/26 00:53:07;;;;;;;20.73;6.38;;;;;;;7.70;100.00;100447.88;4994285;28;20285;-51
2023/03/26 00:55:34;;;;;;;23.75;5.43;;;;;;;7.71;100.00;100459.19;4993799;28;20049;-51
2023/03/26 00:58:00;;;;;;;15.82;3.95;;;;;;;7.49;100.00;100417.00;4993859;28;20077;-51
2023/03/26 01:00:30;;;;;;;26.38;5.57;;;;;;;6.92;100.00;100324.28;4998086;28;20057;-49
2023/03/26 01:02:57;;;;;;;30.33;5.45;;;;;;;7.94;100.00;100494.34;4995659;28;20529;-51
2023/03/26 01:05:44;;;;;;;33.15;5.75;;;;;;;7.97;100.00;100503.88;4995672;28;20073;-52
2023/03/26 01:08:32;;;;;;;25.60;5.75;;;;;;;8.03;100.00;100489.75;4976486;28;20027;-49
2023/03/26 01:11:04;;;;;;;36.22;6.03;;;;;;;8.02;100.00;100483.69;4976215;28;20038;-51
2023/03/26 01:13:33;;;;;;;29.92;6.75;;;;;;;8.00;100.00;100477.59;4983708;28;20481;-50
2023/03/26 01:16:00;;;;;;;34.28;6.82;;;;;;;7.96;100.00;100496.94;4977709;28;20061;-51
2023/03/26 01:18:27;;;;;;;40.85;8.50;;;;;;;7.97;100.00;100482.91;4976200;28;20542;-50
2023/03/26 01:20:57;;;;;;;39.05;7.90;;;;;;;7.67;100.00;100424.38;4958820;28;20078;-52
2023/03/26 01:23:25;;;;;;;46.30;8.27;;;;;;;7.96;100.00;100465.50;4973161;28;20114;-47
2023/03/26 01:26:15;;;;;;;56.75;9.02;;;;;;;8.06;100.00;100487.91;4987332;28;20038;-48
2023/03/26 01:28:40;;;;;;;45.28;8.95;;;;;;;7.75;100.00;100413.69;4962013;28;20133;-50
2023/03/26 01:31:16;;;;;;;46.40;9.57;;;;;;;7.91;100.00;100451.63;4991801;28;20038;-52
2023/03/26 01:33:57;;;;;;;47.85;9.57;;;;;;;7.59;100.00;100407.16;4975578;28;20039;-49
2023/03/26 01:36:47;;;;;;;48.33;9.95;;;;;;;7.88;100.00;100463.06;4973627;28;20030;-52
2023/03/26 01:39:37;;;;;;;46.85;9.75;;;;;;;7.67;100.00;100429.63;4971918;28;20117;-50
2023/03/26 01:42:10;;;;;;;52.70;8.88;;;;;;;7.75;100.00;100451.22;4987896;28;20540;-54
2023/03/26 01:45:16;;;;;;;65.47;10.95;;;;;;;7.64;100.00;100444.56;4993791;28;20050;-52
2023/03/26 01:47:42;;;;;;;54.53;8.75;;;;;;;7.53;100.00;100442.19;4879238;29;20092;-53
2023/03/26 01:50:08;;;;;;;52.75;9.35;;;;;;;7.42;100.00;100427.66;4878793;29;20082;-49
2023/03/26 01:52:34;;;;;;;53.33;9.68;;;;;;;7.44;100.00;100437.22;4961942;28;20205;-52
2023/03/26 01:55:01;;;;;;;54.08;10.25;;;;;;;7.40;100.00;100430.34;4994344;28;20113;-52
2023/03/26 01:57:53;;;;;;;48.35;10.00;;;;;;;7.11;100.00;100376.13;5007569;28;20034;-50
2023/03/26 02:00:24;;;;;;;60.67;10.52;;;;;;;7.38;100.00;100427.75;5001506;28;20067;-52
2023/03/26 02:03:08;;;;;;;;;;;;;;;7.38;100.00;100426.03;5010777;28;20073;-52
2023/03/26 02:06:02;;;;;;;49.45;9.52;;;;;;;7.34;100.00;100422.63;4983330;28;20341;-52
2023/03/26 02:08:34;;;;;;;39.03;7.45;;;;;;;7.19;100.00;100426.50;4991566;28;20069;-53
2023/03/26 02:11:09;;;;;;;50.63;9.90;;;;;;;6.74;100.00;100351.78;4992110;28;20508;-53
2023/03/26 02:13:35;;;;;;;58.40;10.15;;;;;;;7.06;100.00;100417.25;4993433;28;20386;-53
2023/03/26 02:16:04;;;;;;;58.58;9.18;;;;;;;6.93;100.00;100405.34;4992072;28;20048;-53
2023/03/26 02:18:35;;;;;;;45.83;8.95;;;;;;;6.92;100.00;100408.03;4991463;28;20128;-53
2023/03/26 02:21:02;;;;;;;47.72;9.25;;;;;;;6.92;100.00;100414.09;4990246;28;20100;-50
2023/03/26 02:23:28;;;;;;;52.50;10.32;;;;;;;6.91;100.00;100412.38;4986796;28;20046;-50
2023/03/26 02:25:54;;;;;;;59.33;11.10;;;;;;;6.55;100.00;100345.25;4990870;28;20042;-53
2023/03/26 02:28:19;;;;;;;57.17;11.43;;;;;;;6.71;100.00;100355.28;4991350;28;20033;-53
2023/03/26 02:30:46;;;;;;;62.78;12.35;;;;;;;7.07;100.00;100402.38;4993070;28;20030;-55
2023/03/26 02:33:14;;;;;;;59.03;11.52;;;;;;;7.17;100.00;100410.00;4993991;28;20073;-47
2023/03/26 02:35:40;;;;;;;65.13;11.90;;;;;;;7.21;100.00;100388.03;4993061;28;20034;-51
2023/03/26 02:38:08;;;;;;;56.22;10.90;;;;;;;6.85;100.00;100322.72;4992907;28;20034;-53
2023/03/26 02:40:34;;;;;;;67.95;12.75;;;;;;;7.38;100.00;100395.47;4990901;28;20034;-51
2023/03/26 02:42:59;;;;;;;55.50;10.65;;;;;;;7.44;100.00;100381.38;4991806;28;20130;-52
2023/03/26 02:45:25;;;;;;;59.83;11.20;;;;;;;7.47;100.00;100389.16;4991179;28;20154;-51
2023/03/26 02:47:50;;;;;;;69.57;13.75;;;;;;;7.10;100.00;100316.81;4992249;28;20038;-55
2023/03/26 02:50:16;;;;;;;66.53;14.40;;;;;;;7.45;100.00;100369.97;4991986;28;20045;-52
2023/03/26 02:52:42;;;;;;;59.85;12.32;;;;;;;7.11;100.00;100309.81;4974952;28;20038;-52
2023/03/26 02:55:07;;;;;;;67.25;14.55;;;;;;;7.33;100.00;100352.84;4993267;28;20049;-53
2023/03/26 02:57:33;;;;;;;68.38;13.95;;;;;;;7.47;100.00;100370.81;4992738;28;20501;-52
2023/03/26 02:59:58;;;;;;;56.78;12.77;;;;;;;7.09;100.00;100301.16;4992610;28;20428;-54
2023/03/26 03:02:28;;;;;;;55.58;11.45;;;;;;;7.54;100.00;100381.06;4990572;28;20042;-52
2023/03/26 03:05:00;;;;;;;57.15;13.20;;;;;;;7.17;100.00;100301.81;4975178;28;20129;-51
2023/03/26 03:07:25;;;;;;;59.90;13.35;;;;;;;7.34;100.00;100313.53;4961765;28;20065;-50
2023/03/26 03:09:50;;;;;;;65.85;13.80;;;;;;;7.73;100.00;100361.34;4991810;28;20065;-50
2023/03/26 03:12:16;;;;;;;62.00;13.88;;;;;;;7.42;100.00;100305.47;4991872;28;20038;-50
2023/03/26 03:14:41;;;;;;;63.10;13.48;;;;;;;7.38;100.00;100289.88;4992665;28;20034;-50
2023/03/26 03:17:06;;;;;;;52.70;13.60;;;;;;;7.49;100.00;100303.53;4991217;28;20042;-53
2023/03/26 03:19:32;;;;;;;61.22;15.32;;;;;;;7.85;100.00;100360.13;4992634;28;20046;-52
2023/03/26 03:21:57;;;;;;;54.15;14.88;;;;;;;7.49;100.00;100283.44;4992291;28;20125;-54
2023/03/26 03:24:22;;;;;;;61.90;13.98;;;;;;;7.88;100.00;100339.06;4974553;28;20046;-57
2023/03/26 03:26:49;;;;;;;68.60;15.02;;;;;;;7.68;100.00;100300.34;4992209;28;20045;-55
2023/03/26 03:29:14;;;;;;;60.95;13.95;;;;;;;7.90;100.00;100345.13;4991978;28;20039;-53
2023/03/26 03:31:40;;;;;;;59.25;14.02;;;;;;;7.50;100.00;100269.44;4991413;28;20045;-50
2023/03/26 03:34:05;;;;;;;59.08;14.63;;;;;;;7.90;100.00;100339.88;4991108;28;20042;-56
2023/03/26 03:36:32;;;;;;;72.55;17.10;;;;;;;7.89;100.00;100338.16;4992193;28;20478;-52
2023/03/26 03:39:01;;;;;;;57.45;14.02;;;;;;;7.89;100.00;100335.53;4990949;28;20046;-53
2023/03/26 03:41:27;;;;;;;52.13;13.50;;;;;;;7.91;100.00;100337.19;4991856;28;20553;-50
2023/03/26 03:43:52;;;;;;;52.20;13.77;;;;;;;7.92;100.00;100330.19;4992134;28;20129;-55
2023/03/26 03:46:17;;;;;;;58.22;12.65;;;;;;;7.51;100.00;100260.69;4991549;28;20042;-56
2023/03/26 03:48:48;;;;;;;58.83;15.07;;;;;;;7.91;100.00;100315.38;4973668;28;20399;-56
2023/03/26 03:51:13;;;;;;;47.78;12.18;;;;;;;7.54;100.00;100257.97;4989704;28;20322;-48
2023/03/26 03:53:39;;;;;;;57.38;14.10;;;;;;;7.92;100.00;100317.97;4991836;28;20046;-51
2023/03/26 03:56:08;;;;;;;58.65;15.30;;;;;;;7.94;100.00;100321.38;4991769;28;20046;-53
2023/03/26 03:58:34;;;;;;;51.75;14.55;;;;;;;7.95;100.00;100311.75;5012066;28;20034;-55
2023/03/26 04:01:01;;;;;;;55.83;13.77;;;;;;;7.63;100.00;100249.84;5004742;28;20032;-52
2023/03/26 04:03:27;;;;;;;50.80;12.40;;;;;;;7.91;100.00;100292.66;4992750;28;20089;-53
2023/03/26 04:05:53;;;;;;;55.40;14.02;;;;;;;7.99;100.00;100295.06;4993562;28;20031;-52
2023/03/26 04:08:22;;;;;;;53.45;15.05;;;;;;;7.60;100.00;100221.13;5000754;28;20126;-51
2023/03/26 04:10:48;;;;;;;52.47;13.18;;;;;;;7.96;100.00;100304.78;4972826;28;20425;-47
2023/03/26 04:13:14;;;;;;;64.00;15.48;;;;;;;7.59;100.00;100229.88;4990743;28;20038;-55
2023/03/26 04:15:41;;;;;;;46.33;12.45;;;;;;;7.75;100.00;100277.44;4977925;28;20076;-51
2023/03/26 04:18:09;;;;;;;58.42;13.15;;;;;;;7.76;100.00;100272.13;4995809;28;20045;-51
2023/03/26 04:20:40;;;;;;;54.33;14.50;;;;;;;7.47;100.00;100214.56;4992253;28;20034;-50
2023/03/26 04:23:07;;;;;;;65.53;15.63;;;;;;;7.86;100.00;100285.84;4980081;28;20034;-50
2023/03/26 04:25:35;;;;;;;56.70;13.80;;;;;;;7.86;100.00;100285.84;4994764;28;20019;-52
2023/03/26 04:28:05;;;;;;;47.42;13.68;;;;;;;7.84;100.00;100274.56;4978984;28;20030;-50
2023/03/26 04:30:32;;;;;;;61.38;13.93;;;;;;;7.87;100.00;100269.22;4978585;28;20183;-55
2023/03/26 04:33:02;;;;;;;44.35;13.30;;;;;;;7.54;100.00;100204.72;4995857;28;20374;-53
2023/03/26 04:35:33;;;;;;;57.10;14.93;;;;;;;7.84;100.00;100262.31;4979478;28;20038;-51
2023/03/26 04:37:58;;;;;;;52.85;13.25;;;;;;;7.84;100.00;100262.31;4977759;28;20028;-52
2023/03/26 04:40:24;;;;;;;47.85;14.25;;;;;;;7.81;100.00;100245.81;4996041;28;20038;-52
2023/03/26 04:42:49;;;;;;;56.63;14.10;;;;;;;7.85;100.00;100247.47;4974873;28;20092;-53
2023/03/26 04:45:16;;;;;;;44.75;12.75;;;;;;;7.80;100.00;100244.97;4997989;28;20034;-56
2023/03/26 04:47:42;;;;;;;49.45;13.07;;;;;;;7.76;100.00;100227.59;4984549;28;20026;-52
2023/03/26 04:50:10;;;;;;;43.85;12.15;;;;;;;7.76;100.00;100232.00;4994993;28;20397;-55
2023/03/26 04:52:35;;;;;;;35.45;10.65;;;;;;;7.85;100.00;100234.34;4994942;28;20497;-52
2023/03/26 04:55:01;;;;;;;49.88;12.20;;;;;;;7.80;100.00;100217.91;4993756;28;20043;-50
2023/03/26 04:57:29;;;;;;;43.33;11.32;;;;;;;7.51;100.00;100161.16;4974837;28;20042;-49
2023/03/26 04:59:55;;;;;;;48.38;11.82;;;;;;;7.49;100.00;100156.88;4975993;28;20046;-50
2023/03/26 05:02:20;;;;;;;50.60;12.20;;;;;;;7.55;100.00;100169.78;4974098;28;20504;-53
2023/03/26 05:04:45;;;;;;;50.55;11.23;;;;;;;7.80;100.00;100207.41;4994862;28;20067;-52
2023/03/26 05:07:16;;;;;;;58.47;12.15;;;;;;;7.78;100.00;100209.25;4994695;28;20046;-53
2023/03/26 05:09:41;;;;;;;45.38;12.70;;;;;;;7.76;100.00;100214.50;4974948;28;20157;-50
2023/03/26 05:12:07;;;;;;;50.00;14.30;;;;;;;7.75;100.00;100197.09;5005138;28;20117;-53
2023/03/26 05:14:32;;;;;;;40.78;11.88;;;;;;;7.73;100.00;100201.53;4979584;28;20478;-49
2023/03/26 05:16:58;;;;;;;56.83;12.85;;;;;;;7.70;100.00;100193.78;5015017;28;20037;-51
2023/03/26 05:19:23;;;;;;;42.72;12.15;;;;;;;7.42;100.00;100143.13;4982335;28;20042;-53
2023/03/26 05:21:48;;;;;;;49.00;11.35;;;;;;;7.60;100.00;100173.97;4993728;28;20030;-57
2023/03/26 05:24:14;;;;;;;46.15;11.25;;;;;;;7.64;100.00;100185.22;4994936;28;20045;-53
2023/03/26 05:26:39;;;;;;;32.25;9.43;;;;;;;7.23;100.00;100116.66;4993199;28;20117;-53
2023/03/26 05:29:04;;;;;;;43.60;10.13;;;;;;;7.24;100.00;100114.88;4994383;28;20406;-54
2023/03/26 05:31:30;;;;;;;40.33;10.23;;;;;;;7.22;100.00;100106.22;4959767;28;20478;-50
2023/03/26 05:33:56;;;;;;;46.88;9.85;;;;;;;7.20;100.00;100106.28;4977504;28;20039;-52
2023/03/26 05:36:22;;;;;;;36.78;10.02;;;;;;;7.52;100.00;100156.78;4960593;28;20046;-51
2023/03/26 05:38:48;;;;;;;40.10;11.05;;;;;;;7.15;100.00;100079.38;4992903;28;20548;-49
2023/03/26 05:41:15;;;;;;;41.55;9.52;;;;;;;7.19;100.00;100088.00;4993449;28;20038;-50
2023/03/26 05:43:41;;;;;;;39.67;10.23;;;;;;;7.61;100.00;100148.66;4986521;28;20081;-50
2023/03/26 05:46:06;;;;;;;39.45;9.13;;;;;;;7.40;100.00;100117.88;5001068;28;20038;-50
2023/03/26 05:48:32;;;;;;;43.40;9.70;;;;;;;7.63;100.00;100155.56;4999760;28;20048;-48
2023/03/26 05:50:57;;;;;;;37.38;9.43;;;;;;;7.62;100.00;100151.22;4993445;28;20930;-54
2023/03/26 05:53:24;;;;;;;52.63;10.35;;;;;;;7.61;100.00;100146.03;4993609;28;20050;-52
2023/03/26 05:55:56;;;;;;;41.10;10.57;;;;;;;7.62;100.00;100156.44;4974172;28;20441;-53
2023/03/26 05:58:25;;;;;;;51.15;9.95;;;;;;;7.56;100.00;100140.94;4972254;28;20030;-52
2023/03/26 06:01:15;;;;;;;45.67;10.15;;;;;;;7.62;100.00;100148.59;4991873;28;20064;-50
2023/03/26 06:03:42;;;;;;;41.83;10.35;;;;;;;7.34;100.00;100091.00;4976352;28;20030;-53
2023/03/26 06:06:14;;;;;;;41.13;9.85;;;;;;;7.68;100.00;100148.41;4993509;28;20110;-51
2023/03/26 06:08:40;;;;;;;;;;;;;;;7.71;100.00;100150.06;4977759;28;20113;-53
2023/03/26 06:11:06;;;;;;;50.72;10.93;;;;;;;7.31;100.00;100080.63;4977377;28;20409;-52
2023/03/26 06:13:32;;;;;;;40.47;9.10;;;;;;;7.33;100.00;100085.78;4992504;28;20035;-54
2023/03/26 06:15:57;;;;;;;43.85;10.15;;;;;;;7.70;100.00;100144.00;4991855;28;20037;-54
2023/03/26 06:18:24;;;;;;;41.65;10.25;;;;;;;7.53;100.00;100106.16;4976231;28;20042;-46
2023/03/26 06:20:50;;;;;;;47.47;10.52;;;;;;;7.73;100.00;100143.03;4992600;28;20401;-49
2023/03/26 06:23:16;;;;;;;47.10;10.15;;;;;;;7.55;100.00;100104.31;4959831;28;20030;-52
2023/03/26 06:25:43;;;;;;;42.97;10.68;;;;;;;7.64;100.00;100111.91;4992558;28;20069;-50
2023/03/26 06:28:08;;;;;;;45.10;11.15;;;;;;;7.76;100.00;100135.09;4976168;28;20505;-48
2023/03/26 06:30:34;;;;;;;43.10;11.00;;;;;;;7.81;100.00;100135.78;4974944;28;20034;-53
2023/03/26 06:33:00;;;;;;;47.38;12.05;;;;;;;7.47;100.00;100067.91;4991526;28;20117;-52
2023/03/26 06:35:25;;;;;;;41.20;9.25;;;;;;;7.80;100.00;100115.72;4992620;28;20117;-49
2023/03/26 06:37:50;;;;;;;38.78;10.70;;;;;;;7.58;100.00;100083.28;4975392;28;20082;-52
2023/03/26 06:40:16;;;;;;;46.63;10.18;;;;;;;7.61;100.00;100084.03;4975170;28;20212;-51
2023/03/26 06:42:41;;;;;;;44.60;11.45;;;;;;;7.57;100.00;100074.56;4992866;28;20077;-50
2023/03/26 06:45:07;;;;;;;45.45;11.25;;;;;;;7.96;100.00;100137.91;4974650;28;20412;-51
2023/03/26 06:47:32;;;;;;;52.67;12.60;;;;;;;7.57;100.00;100065.84;5001446;28;20026;-51
2023/03/26 06:49:58;;;;;;;44.90;11.98;;;;;;;8.00;100.00;100129.03;4995384;28;20081;-51
2023/03/26 06:52:23;;;;;;;43.40;12.43;;;;;;;8.04;100.00;100140.25;4990594;28;20441;-53
2023/03/26 06:54:48;;;;;;;54.83;13.38;;;;;;;7.73;100.00;100081.03;4991235;28;20401;-52
2023/03/26 06:57:14;;;;;;;43.25;11.57;;;;;;;8.10;100.00;100138.31;4992702;28;20038;-54
2023/03/26 06:59:39;;;;;;;44.67;12.77;;;;;;;7.59;100.00;100057.03;4992880;28;20054;-51
2023/03/26 07:02:05;;;;;;;46.92;12.55;;;;;;;8.17;100.00;100136.34;4989762;28;20050;-50
2023/03/26 07:04:30;;;;;;;52.17;12.75;;;;;;;8.21;100.00;100135.31;4991493;28;20162;-52
2023/03/26 07:06:55;;;;;;;43.83;13.00;;;;;;;7.84;100.00;100064.94;4990465;28;20039;-51
2023/03/26 07:09:21;;;;;;;39.63;12.45;;;;;;;8.17;100.00;100133.72;4991611;28;20489;-51
2023/03/26 07:11:46;;;;;;;46.45;14.05;;;;;;;8.21;100.00;100135.31;4991873;28;20050;-52
2023/03/26 07:14:11;;;;;;;44.88;13.25;;;;;;;7.84;100.00;100073.66;4998661;28;20120;-53
2023/03/26 07:16:37;;;;;;;47.90;13.07;;;;;;;7.90;100.00;100069.97;4993794;28;20046;-53
2023/03/26 07:19:02;;;;;;;46.42;11.93;;;;;;;7.97;100.00;100075.88;5008839;28;20038;-50
2023/03/26 07:21:28;;;;;;;45.40;14.77;;;;;;;7.80;100.00;100048.47;5006754;28;20044;-54
2023/03/26 07:23:53;;;;;;;39.72;13.55;;;;;;;8.33;100.00;100129.69;4993262;28;20045;-53
2023/03/26 07:26:32;;;;;;;44.70;14.45;;;;;;;8.35;100.00;100140.97;4991051;28;20132;-47
2023/03/26 07:28:57;;;;;;;38.72;13.43;;;;;;;8.36;100.00;100130.44;4987079;28;20517;-51
2023/03/26 07:31:37;;;;;;;47.72;13.90;;;;;;;8.35;100.00;100136.59;4991800;28;20051;-51
2023/03/26 07:34:26;;;;;;;44.63;14.23;;;;;;;8.35;100.00;100135.72;4990044;28;20057;-53
2023/03/26 07:36:57;;;;;;;48.45;17.70;;;;;;;7.97;100.00;100074.09;4989085;28;20030;-50
2023/03/26 07:39:53;;;;;;;40.67;14.32;;;;;;;7.96;100.00;100082.88;4990094;28;20069;-53
2023/03/26 07:42:40;;;;;;;42.13;14.38;;;;;;;8.25;100.00;100129.94;4990087;28;20057;-53
2023/03/26 07:45:17;;;;;;;40.17;15.13;;;;;;;8.28;100.00;100129.00;4991698;28;20061;-53
2023/03/26 07:47:43;;;;;;;43.83;16.23;;;;;;;8.22;100.00;100116.94;4992044;28;20049;-54
2023/03/26 07:50:17;;;;;;;46.55;15.70;;;;;;;8.00;100.00;100075.78;4991574;28;20042;-53
2023/03/26 07:52:43;;;;;;;42.30;13.68;;;;;;;7.89;100.00;100056.03;4992204;28;20046;-55
2023/03/26 07:55:12;;;;;;;41.33;14.68;;;;;;;8.27;100.00;100117.66;4992160;28;20049;-51
2023/03/26 07:57:47;;;;;;;42.00;14.18;;;;;;;7.95;100.00;100057.56;4993726;28;20030;-52
2023/03/26 08:00:20;;;;;;;44.53;16.33;;;;;;;8.33;100.00;100124.44;4974565;28;20038;-56
2023/03/26 08:03:07;;;;;;;52.33;16.10;;;;;;;8.37;100.00;100132.16;4974849;28;20504;-54
2023/03/26 08:05:47;;;;;;;33.80;14.55;;;;;;;7.98;100.00;100052.22;4990300;28;20033;-50
2023/03/26 08:08:19;;;;;;;41.73;14.20;;;;;;;8.39;100.00;100117.22;4997057;28;20393;-54
2023/03/26 08:10:56;;;;;;;33.55;12.90;;;;;;;8.46;100.00;100117.88;4994910;28;20029;-54
2023/03/26 08:13:26;;;;;;;40.72;13.25;;;;;;;8.50;100.00;100129.97;4997290;28;20580;-51
2023/03/26 08:16:11;;;;;;;38.95;12.88;;;;;;;8.46;100.00;100116.09;4992377;28;20035;-52
2023/03/26 08:18:43;;;;;;;40.53;13.18;;;;;;;8.42;100.00;100117.13;4974819;28;20276;-53
2023/03/26 08:21:16;;;;;;;29.10;11.18;;;;;;;8.39;100.00;100114.59;4975476;28;20389;-52
2023/03/26 08:24:00;;;;;;;31.35;11.52;;;;;;;8.41;100.00;100117.16;4972762;28;20065;-55
2023/03/26 08:26:50;;;;;;;35.88;12.27;;;;;;;8.38;100.00;100123.38;4982646;28;20030;-53
2023/03/26 08:29:35;;;;;;;34.33;11.93;;;;;;;8.40;100.00;100120.72;4992290;28;20035;-52
2023/03/26 08:32:03;;;;;;;43.80;13.02;;;;;;;8.32;100.00;100105.22;4956775;28;20041;-52
2023/03/26 08:34:28;;;;;;;40.90;14.90;;;;;;;8.37;100.00;100103.31;4972938;28;20038;-51
2023/03/26 08:36:54;;;;;;;46.38;15.43;;;;;;;8.55;100.00;100129.81;4984280;28;20038;-50
2023/03/26 08:39:21;;;;;;;44.08;15.27;;;;;;;8.54;100.00;100114.97;4990565;28;20072;-52
2023/03/26 08:41:52;;;;;;;47.13;15.20;;;;;;;8.62;100.00;100128.66;4992470;28;20577;-51
2023/03/26 08:44:35;;;;;;;41.85;15.27;;;;;;;8.49;100.00;100079.25;4992242;28;20026;-52
2023/03/26 08:47:33;;;;;;;49.30;18.23;;;;;;;8.56;100.00;100092.16;4973023;28;20066;-53
2023/03/26 08:50:20;;;;;;;45.30;17.23;;;;;;;8.64;100.00;100125.06;4972727;28;20043;-49
2023/03/26 08:52:55;;;;;;;51.72;19.42;;;;;;;8.64;100.00;100125.06;4974751;28;20097;-54
2023/03/26 08:55:54;;;;;;;48.35;19.60;;;;;;;8.25;100.00;100058.28;4990763;28;20030;-55
2023/03/26 08:58:22;;;;;;;55.92;21.77;;;;;;;8.58;100.00;100138.41;4970994;28;20046;-50
2023/03/26 09:01:15;;;;;;;56.35;22.95;;;;;;;8.44;100.00;100131.03;4983965;28;20063;-51
2023/03/26 09:04:15;;;;;;;70.40;24.88;;;;;;;8.42;100.00;100130.25;4995911;28;20486;-53
2023/03/26 09:07:17;;;;;;;30.48;15.40;;;;;;;8.38;100.00;100133.00;4978291;28;20022;-55
2023/03/26 09:10:15;;;;;;;27.90;14.43;;;;;;;8.24;100.00;100130.84;4976904;28;20049;-57
2023/03/26 09:13:18;;;;;;;27.75;16.70;;;;;;;7.71;100.00;100058.38;4967309;28;20030;-55
2023/03/26 09:15:59;;;;;;;38.45;17.10;;;;;;;8.11;100.00;100140.03;4958835;28;20039;-54
2023/03/26 09:18:27;;;;;;;42.80;20.27;;;;;;;8.06;100.00;100136.69;4974585;28;20039;-56
2023/03/26 09:20:58;;;;;;;36.80;19.15;;;;;;;7.84;100.00;100112.97;4976526;28;20045;-55
2023/03/26 09:23:42;;;;;;;42.55;22.25;;;;;;;8.01;100.00;100143.84;4975229;28;20043;-53
2023/03/26 09:26:22;;;;;;;49.25;21.10;;;;;;;7.99;100.00;100144.81;4975573;28;20037;-56
2023/03/26 09:29:07;;;;;;;46.97;20.50;;;;;;;8.00;100.00;100152.59;4990605;28;20076;-51
2023/03/26 09:32:01;;;;;;;41.63;21.63;;;;;;;7.93;100.00;100143.25;4977845;28;20089;-53
2023/03/26 09:34:31;;;;;;;42.22;20.95;;;;;;;7.91;100.00;100147.66;4977460;28;20030;-51
2023/03/26 09:37:17;;;;;;;39.40;21.63;;;;;;;7.99;100.00;100150.06;4977963;28;20552;-54
2023/03/26 09:40:21;;;;;;;38.15;19.25;;;;;;;7.96;100.00;100148.41;4977974;28;20070;-51
2023/03/26 09:43:44;;;;;;;37.05;19.48;;;;;;;8.03;100.00;100155.13;4977590;28;20046;-51
2023/03/26 09:47:00;;;;;;;33.55;18.35;;;;;;;8.01;100.00;100158.72;4896450;29;20079;-53
2023/03/26 09:49:31;;;;;;;35.47;18.02;;;;;;;8.10;100.00;100163.66;4875931;29;20393;-50
2023/03/26 09:52:19;;;;;;;36.17;17.65;;;;;;;8.23;100.00;100160.56;4978236;28;20094;-54
2023/03/26 09:55:01;;;;;;;31.58;15.68;;;;;;;8.16;100.00;100135.47;4975675;28;20038;-51
2023/03/26 09:57:35;;;;;;;33.47;16.48;;;;;;;8.23;100.00;100163.19;4994664;28;20065;-54
2023/03/26 10:00:26;;;;;;;25.80;15.10;;;;;;;8.25;100.00;100171.88;4994087;28;20049;-52
2023/03/26 10:03:07;;;;;;;;;;;;;;;8.18;100.00;100179.97;4976503;28;20034;-50
2023/03/26 10:05:57;;;;;;;19.30;11.17;;;;;;;8.24;100.00;100190.28;4976900;28;19918;-50
2023/03/26 10:08:26;;;;;;;26.48;11.10;;;;;;;8.26;100.00;100183.22;4994595;28;20286;-54
2023/03/26 10:11:01;;;;;;;17.73;9.90;;;;;;;8.32;100.00;100185.66;4993251;28;20113;-51
2023/03/26 10:13:51;;;;;;;17.50;8.13;;;;;;;8.34;100.00;100197.84;4993788;28;20073;-56
2023/03/26 10:16:26;;;;;;;18.05;6.13;;;;;;;7.85;100.00;100132.16;4976075;28;20383;-57
2023/03/26 10:19:03;;;;;;;13.77;5.75;;;;;;;8.05;100.00;100205.75;4994336;28;20070;-53
2023/03/26 10:21:37;;;;;;;13.70;5.25;;;;;;;7.70;100.00;100156.22;4991937;28;20062;-55
2023/03/26 10:24:21;;;;;;;15.82;5.40;;;;;;;7.84;100.00;100216.91;4994215;28;20164;-54
2023/03/26 10:26:55;;;;;;;19.60;5.32;;;;;;;7.87;100.00;100212.44;4989986;28;20041;-54
2023/03/26 10:29:33;;;;;;;17.38;5.75;;;;;;;7.80;100.00;100202.19;4992644;28;20081;-54
2023/03/26 10:32:27;;;;;;;26.33;5.68;;;;;;;7.84;100.00;100203.81;4993656;28;20037;-51
2023/03/26 10:35:05;;;;;;;16.77;5.47;;;;;;;7.79;100.00;100213.59;4943362;28;20062;-56
2023/03/26 10:37:54;;;;;;;21.70;4.65;;;;;;;7.82;100.00;100222.19;4976220;28;20036;-53
2023/03/26 10:40:35;;;;;;;21.77;4.80;;;;;;;7.99;100.00;100220.81;4976366;28;20065;-53
2023/03/26 10:43:00;;;;;;;15.90;4.57;;;;;;;8.05;100.00;100221.47;4978999;28;20030;-49
2023/03/26 10:45:47;;;;;;;20.42;4.55;;;;;;;8.03;100.00;100230.28;4993797;28;20422;-50
2023/03/26 10:48:48;;;;;;;23.92;5.53;;;;;;;8.02;100.00;100237.31;4993585;28;20413;-56
2023/03/26 10:51:54;;;;;;;19.10;4.70;;;;;;;8.04;100.00;100240.72;4977537;28;20461;-53
2023/03/26 10:54:30;;;;;;;21.88;5.20;;;;;;;7.93;100.00;100240.22;4949042;29;20137;-50
2023/03/26 10:56:56;;;;;;;19.23;5.45;;;;;;;7.71;100.00;100220.78;4937631;29;20047;-55
2023/03/26 10:59:22;;;;;;;22.83;5.53;;;;;;;7.85;100.00;100247.47;4965651;28;20520;-47
2023/03/26 11:01:47;;;;;;;20.10;5.93;;;;;;;7.91;100.00;100244.63;4992172;28;20030;-50
2023/03/26 11:04:32;;;;;;;22.75;5.85;;;;;;;8.01;100.00;100247.81;4990397;28;20049;-53
2023/03/26 11:07:20;;;;;;;27.15;7.03;;;;;;;7.92;100.00;100233.25;4993247;28;20054;-55
2023/03/26 11:09:58;;;;;;;18.90;5.57;;;;;;;8.07;100.00;100261.59;4991891;28;20049;-52
2023/03/26 11:12:44;;;;;;;20.17;5.50;;;;;;;7.95;100.00;100264.59;4993042;28;20030;-54
2023/03/26 11:15:37;;;;;;;15.48;3.85;;;;;;;8.07;100.00;100261.59;4987778;28;20093;-56
2023/03/26 11:18:12;;;;;;;17.98;4.63;;;;;;;7.74;100.00;100202.38;4990062;28;20050;-54
2023/03/26 11:20:48;;;;;;;16.77;4.57;;;;;;;7.86;100.00;100202.84;4993310;28;20037;-52
2023/03/26 11:23:36;;;;;;;22.85;4.97;;;;;;;8.34;100.00;100267.78;4991825;28;20504;-53
2023/03/26 11:26:22;;;;;;;20.13;5.05;;;;;;;8.43;100.00;100270.09;4989968;28;20096;-53
2023/03/26 11:29:00;;;;;;;12.82;5.05;;;;;;;8.57;100.00;100282.75;4991380;28;20033;-53
2023/03/26 11:31:41;;;;;;;21.65;4.25;;;;;;;8.69;100.00;100290.22;4992728;28;20046;-51
2023/03/26 11:34:15;;;;;;;22.27;5.50;;;;;;;8.17;100.00;100218.44;4993178;28;20053;-55
2023/03/26 11:36:46;;;;;;;18.70;4.25;;;;;;;8.59;100.00;100304.53;4991960;28;20454;-51